Time,TemperatureF,DewpointF,PressureIn,WindDirection,WindDirectionDegrees,WindSpeedMPH,WindSpeedGustMPH,Humidity,HourlyPrecipIn,Conditions,Clouds,dailyrainin,SoftwareType,DateUTC
2013-07-04 00:27:00,62.1,55.2,29.77,NW,304,4.0,4.0,78,0.00,,,0.00,Wunderground v.1.15,2013-07-04 07:27:00,
2013-07-04 00:57:00,62.9,55.6,29.77,NW,325,4.0,4.0,77,0.00,,,0.00,Wunderground v.1.15,2013-07-04 07:57:00,
2013-07-04 01:27:00,64.9,55.7,29.74,NW,315,5.0,5.0,72,0.00,,,0.00,Wunderground v.1.15,2013-07-04 08:27:00,
2013-07-04 01:57:00,66.1,56.0,29.74,North,354,1.0,1.0,70,0.00,,,0.00,Wunderground v.1.15,2013-07-04 08:57:00,
2013-07-04 02:28:00,63.2,55.5,29.73,SE,124,1.0,1.0,76,0.00,,,0.00,Wunderground v.1.15,2013-07-04 09:28:00,
2013-07-04 02:57:00,60.7,54.1,29.74,East,95,2.0,2.0,79,0.00,,,0.00,Wunderground v.1.15,2013-07-04 09:57:00,
2013-07-04 03:27:00,60.4,55.2,29.75,East,95,0.0,0.0,83,0.00,,,0.00,Wunderground v.1.15,2013-07-04 10:27:00,
2013-07-04 03:57:00,60.8,55.6,29.74,East,95,0.0,0.0,83,0.00,,,0.00,Wunderground v.1.15,2013-07-04 10:57:00,
2013-07-04 04:27:00,61.3,56.4,29.72,East,95,0.0,0.0,84,0.00,,,0.00,Wunderground v.1.15,2013-07-04 11:27:00,
2013-07-04 04:57:00,61.6,56.7,29.72,East,95,1.0,2.0,84,0.00,,,0.00,Wunderground v.1.15,2013-07-04 11:57:00,
2013-07-04 05:28:00,62.5,57.3,29.73,East,84,2.0,2.0,83,0.00,,,0.00,Wunderground v.1.15,2013-07-04 12:28:00,
2013-07-04 05:57:00,62.2,57.0,29.74,ESE,113,0.0,0.0,83,0.00,,,0.00,Wunderground v.1.15,2013-07-04 12:57:00,
2013-07-04 06:27:00,62.0,56.8,29.74,ESE,111,1.0,1.0,83,0.00,,,0.00,Wunderground v.1.15,2013-07-04 13:27:00,
2013-07-04 06:57:00,63.1,57.9,29.74,ESE,106,1.0,1.0,83,0.00,,,0.00,Wunderground v.1.15,2013-07-04 13:57:00,
2013-07-04 07:27:00,65.9,58.8,29.74,ESE,106,0.0,1.0,78,0.00,,,0.00,Wunderground v.1.15,2013-07-04 14:27:00,
2013-07-04 07:57:00,67.3,58.7,29.74,ESE,111,2.0,2.0,74,0.00,,,0.00,Wunderground v.1.15,2013-07-04 14:57:00,
2013-07-04 08:28:00,68.2,58.4,29.75,SE,132,3.0,3.0,71,0.00,,,0.00,Wunderground v.1.15,2013-07-04 15:28:00,
2013-07-04 08:57:00,69.9,58.9,29.76,SE,144,1.0,1.0,68,0.00,,,0.00,Wunderground v.1.15,2013-07-04 15:57:00,
2013-07-04 09:27:00,73.4,60.0,29.75,SE,130,1.0,1.0,63,0.00,,,0.00,Wunderground v.1.15,2013-07-04 16:27:00,
2013-07-04 09:57:00,76.9,61.5,29.75,SE,130,2.0,2.0,59,0.00,,,0.00,Wunderground v.1.15,2013-07-04 16:57:00,
2013-07-04 10:27:00,80.8,61.5,29.74,SSW,211,1.0,1.0,52,0.00,,,0.00,Wunderground v.1.15,2013-07-04 17:27:00,
2013-07-04 10:57:00,83.1,61.4,29.75,ESE,117,3.0,4.0,48,0.00,,,0.00,Wunderground v.1.15,2013-07-04 17:57:00,
2013-07-04 11:27:00,86.8,62.3,29.74,SSE,152,1.0,2.0,44,0.00,,,0.00,Wunderground v.1.15,2013-07-04 18:27:00,
2013-07-04 11:57:00,88.3,64.3,29.74,SSE,148,2.0,3.0,45,0.00,,,0.00,Wunderground v.1.15,2013-07-04 18:57:00,
2013-07-04 12:27:00,89.7,60.7,29.73,WNW,299,9.0,10.0,38,0.00,,,0.00,Wunderground v.1.15,2013-07-04 19:27:00,
2013-07-04 12:57:00,90.7,60.8,29.73,WNW,289,8.0,9.0,37,0.00,,,0.00,Wunderground v.1.15,2013-07-04 19:57:00,
2013-07-04 13:27:00,90.8,61.7,29.72,WNW,290,9.0,9.0,38,0.00,,,0.00,Wunderground v.1.15,2013-07-04 20:27:00,
2013-07-04 13:57:00,90.8,61.7,29.71,WNW,300,10.0,13.0,38,0.00,,,0.00,Wunderground v.1.15,2013-07-04 20:57:00,
2013-07-04 14:27:00,88.9,60.7,29.71,West,263,12.0,15.0,39,0.00,,,0.00,Wunderground v.1.15,2013-07-04 21:27:00,
2013-07-04 14:57:00,87.0,59.0,29.70,WNW,292,14.0,14.0,39,0.00,,,0.00,Wunderground v.1.15,2013-07-04 21:57:00,
2013-07-04 15:27:00,86.1,57.5,29.70,WNW,291,10.0,14.0,38,0.00,,,0.00,Wunderground v.1.15,2013-07-04 22:27:00,
2013-07-04 15:57:00,86.3,56.2,29.69,WNW,296,8.0,12.0,36,0.00,,,0.00,Wunderground v.1.15,2013-07-04 22:57:00,
2013-07-04 16:27:00,86.1,54.5,29.68,WNW,294,8.0,12.0,34,0.00,,,0.00,Wunderground v.1.15,2013-07-04 23:27:00,
2013-07-04 16:57:00,85.1,53.6,29.67,NW,311,9.0,9.0,34,0.00,,,0.00,Wunderground v.1.15,2013-07-04 23:57:00,
2013-07-04 17:27:00,82.9,52.4,29.66,WNW,291,8.0,8.0,35,0.00,,,0.00,Wunderground v.1.15,2013-07-05 00:27:00,
2013-07-04 17:57:00,81.9,52.3,29.66,WNW,288,8.0,14.0,36,0.00,,,0.00,Wunderground v.1.15,2013-07-05 00:57:00,
2013-07-04 18:27:00,80.7,51.3,29.66,WNW,296,10.0,12.0,36,0.00,,,0.00,Wunderground v.1.15,2013-07-05 01:27:00,
2013-07-04 18:57:00,81.0,50.8,29.65,WNW,296,10.0,10.0,35,0.00,,,0.00,Wunderground v.1.15,2013-07-05 01:57:00,
2013-07-04 19:27:00,79.8,49.7,29.66,WNW,294,11.0,11.0,35,0.00,,,0.00,Wunderground v.1.15,2013-07-05 02:27:00,
2013-07-04 19:57:00,78.8,48.1,29.66,WNW,302,13.0,13.0,34,0.00,,,0.00,Wunderground v.1.15,2013-07-05 02:57:00,
2013-07-04 20:27:00,76.5,47.6,29.67,WNW,284,12.0,12.0,36,0.00,,,0.00,Wunderground v.1.15,2013-07-05 03:27:00,
2013-07-04 20:57:00,75.5,45.9,29.67,WNW,298,10.0,10.0,35,0.00,,,0.00,Wunderground v.1.15,2013-07-05 03:57:00,
2013-07-04 21:27:00,73.4,45.5,29.68,NW,304,10.0,12.0,37,0.00,,,0.00,Wunderground v.1.15,2013-07-05 04:27:00,
2013-07-04 21:57:00,69.0,44.9,29.68,NW,308,13.0,13.0,42,0.00,,,0.00,Wunderground v.1.15,2013-07-05 04:57:00,
2013-07-04 22:27:00,66.6,45.2,29.69,NW,319,11.0,11.0,46,0.00,,,0.00,Wunderground v.1.15,2013-07-05 05:27:00,
2013-07-04 22:57:00,64.6,45.0,29.69,NW,313,10.0,10.0,49,0.00,,,0.00,Wunderground v.1.15,2013-07-05 05:57:00,
2013-07-04 23:27:00,65.6,44.8,29.68,WNW,295,11.0,17.0,47,0.00,,,0.00,Wunderground v.1.15,2013-07-05 06:27:00,
2013-07-04 23:57:00,64.3,44.2,29.68,NW,313,13.0,13.0,48,0.00,,,0.00,Wunderground v.1.15,2013-07-05 06:57:00,